Time;durP1;ratioP1;P1;durP2;ratioP2;P2;SDS_P1;SDS_P2;PMS_P1;PMS_P2;Temp;Humidity;BMP_temperature;BMP_pressure;BME280_temperature;BME280_humidity;BME280_pressure;Samples;Min_cycle;Max_cycle;Signal;HPM_P1;HPM_P2
2023/03/23 00:00:38;;;;;;;;;;;;;;;-144.99;100.00;52415.47;5017073;28;19983;-74
2023/03/23 00:03:05;;;;;;;;;;;;;;;-144.99;100.00;52448.09;5018415;28;19997;-74
2023/03/23 00:05:31;;;;;;;;;;;;;;;-144.99;100.00;52452.16;5029938;28;19929;-72
2023/03/23 00:08:01;;;;;;;;;;;;;;;-144.99;100.00;52435.88;5021922;28;20357;-73
2023/03/23 00:10:32;;;;;;;;;;;;;;;-144.99;100.00;52497.00;5023490;28;19925;-72
2023/03/23 00:13:02;;;;;;;;;;;;;;;-144.99;100.00;52450.13;5019744;28;19929;-73
2023/03/23 00:15:30;;;;;;;;;;;;;;;-144.99;100.00;52464.41;5016362;28;20028;-72
2023/03/23 00:18:02;;;;;;;;;;;;;;;-144.99;100.00;52486.81;5022028;28;19925;-70
2023/03/23 00:20:29;;;;;;;;;;;;;;;-144.99;100.00;52407.31;5022349;28;19948;-72
2023/03/23 00:22:59;;;;;;;;;;;;;;;-144.99;100.00;52439.94;5014815;28;20005;-72
2023/03/23 00:25:26;;;;;;;;;;;;;;;-144.99;100.00;52460.31;5025435;28;19933;-73
2023/03/23 00:27:54;;;;;;;;;;;;;;;-144.99;100.00;52439.94;5021222;28;19936;-75
2023/03/23 00:30:21;;;;;;;;;;;;;;;-144.99;100.00;52423.63;5021141;28;19941;-75
2023/03/23 00:32:48;;;;;;;;;;;;;;;-144.99;100.00;52437.91;5023654;28;19976;-74
2023/03/23 00:35:15;;;;;;;;;;;;;;;-144.99;100.00;52444.03;5018802;28;19968;-74
2023/03/23 00:37:41;;;;;;;;;;;;;;;-144.99;100.00;52431.78;5024937;28;19999;-75
2023/03/23 00:40:09;;;;;;;;;;;;;;;-144.99;100.00;52446.06;5025735;28;19937;-75
2023/03/23 00:42:37;;;;;;;;;;;;;;;-144.99;100.00;52452.16;5017681;28;19964;-72
2023/03/23 00:45:10;;;;;;;;;;;;;;;-144.99;100.00;52460.31;5018957;28;19947;-76
2023/03/23 00:47:36;;;;;;;;;;;;;;;-144.99;100.00;52478.66;5024368;28;20460;-70
2023/03/23 00:50:05;;;;;;;;;;;;;;;-144.99;100.00;52450.13;5025240;28;19968;-70
2023/03/23 00:52:31;;;;;;;;;;;;;;;-144.99;100.00;52460.31;5025360;28;20286;-70
2023/03/23 00:54:58;;;;;;;;;;;;;;;-144.99;100.00;52427.72;5020438;28;20011;-73
2023/03/23 01:00:10;;;;;;;;;;;;;;;-144.99;100.00;52409.38;5010243;28;19931;-68
2023/03/23 01:02:40;;;;;;;;;;;;;;;-144.99;100.00;52460.31;5011170;28;19932;-71
2023/03/23 01:05:07;;;;;;;;;;;;;;;-144.99;100.00;52456.25;5018122;28;19941;-66
2023/03/23 01:07:33;;;;;;;;;;;;;;;-144.99;100.00;52427.72;5012367;28;19931;-67
2023/03/23 01:10:00;;;;;;;;;;;;;;;-144.99;100.00;52429.75;5004329;28;20353;-66
2023/03/23 01:12:26;;;;;;;;;;;;;;;-144.99;100.00;52456.25;5012772;28;19933;-65
2023/03/23 01:14:53;;;;;;;;;;;;;;;-144.99;100.00;52403.25;5006673;28;19999;-65
2023/03/23 01:17:21;;;;;;;;;;;;;;;-144.99;100.00;52395.09;4997447;28;19969;-67
2023/03/23 01:19:47;;;;;;;;;;;;;;;-144.99;100.00;52423.63;5001687;28;19934;-67
2023/03/23 01:22:14;;;;;;;;;;;;;;;-144.99;100.00;52458.28;5004862;28;19960;-68
2023/03/23 01:24:41;;;;;;;;;;;;;;;-144.99;100.00;52446.06;5004096;28;19936;-69
2023/03/23 01:27:07;;;;;;;;;;;;;;;-144.99;100.00;52448.09;5003691;28;19965;-66
2023/03/23 01:29:34;;;;;;;;;;;;;;;-144.99;100.00;52454.22;5009687;28;19964;-69
2023/03/23 01:32:00;;;;;;;;;;;;;;;-144.99;100.00;52423.63;5006426;28;19961;-66
2023/03/23 01:34:28;;;;;;;;;;;;;;;-144.99;100.00;52456.25;5006110;28;20278;-67
2023/03/23 01:36:55;;;;;;;;;;;;;;;-144.99;100.00;52433.81;5006819;28;19976;-67
2023/03/23 01:39:21;;;;;;;;;;;;;;;-144.99;100.00;52419.56;5009545;28;20027;-67
2023/03/23 01:41:48;;;;;;;;;;;;;;;-144.99;100.00;52423.63;4659061;28;9999939;-69
2023/03/23 01:44:33;;;;;;;;;;;;;;;-144.99;100.00;52450.13;5000380;28;20434;-68
2023/03/23 01:47:00;;;;;;;;;;;;;;;-144.99;100.00;52427.72;5001101;28;20159;-68
2023/03/23 01:49:28;;;;;;;;;;;;;;;-144.99;100.00;52407.31;5007125;28;19925;-69
2023/03/23 01:51:59;;;;;;;;;;;;;;;-144.99;100.00;52450.13;5008386;28;19930;-68
2023/03/23 01:54:26;;;;;;;;;;;;;;;-144.99;100.00;52476.63;5011586;28;19940;-69
2023/03/23 01:56:55;;;;;;;;;;;;;;;-144.99;100.00;52464.41;5008371;28;20020;-76
2023/03/23 01:59:23;;;;;;;;;;;;;;;-144.99;100.00;52431.78;5024284;28;19925;-76
2023/03/23 02:01:52;;;;;;;;;;;;;;;-144.99;100.00;52435.88;5032578;28;19976;-75
2023/03/23 02:04:19;;;;;;;;;;;;;;;-144.99;100.00;52444.03;5037138;28;20432;-76
2023/03/23 02:06:46;;;;;;;;;;;;;;;-144.99;100.00;52427.72;5032290;28;19933;-71
2023/03/23 02:09:16;;;;;;;;;;;;;;;-144.99;100.00;52476.63;5033986;28;20440;-73
2023/03/23 02:11:43;;;;;;;;;;;;;;;-144.99;100.00;52464.41;5035193;28;19925;-71
2023/03/23 02:14:12;;;;;;;;;;;;;;;-144.99;100.00;52399.19;5039302;28;22356;-72
2023/03/23 02:16:42;;;;;;;;;;;;;;;-144.99;100.00;52448.09;5030026;28;20357;-71
2023/03/23 02:19:23;;;;;;;;;;;;;;;-144.99;100.00;52431.78;5029765;28;20328;-72
2023/03/23 02:22:05;;;;;;;;;;;;;;;-144.99;100.00;52435.88;5031433;28;19928;-72
2023/03/23 02:24:52;;;;;;;;;;;;;;;-144.99;100.00;52439.94;5033867;28;19952;-72
2023/03/23 02:27:27;;;;;;;;;;;;;;;-144.99;100.00;52456.25;5024106;28;19929;-72
2023/03/23 02:30:06;;;;;;;;;;;;;;;-144.99;100.00;52391.03;5028708;28;19929;-73
2023/03/23 02:32:48;;;;;;;;;;;;;;;-144.99;100.00;52456.25;5037762;28;19924;-73
2023/03/23 02:35:19;;;;;;;;;;;;;;;-144.99;100.00;52468.47;5026086;28;20071;-72
2023/03/23 02:37:48;;;;;;;;;;;;;;;-144.99;100.00;52433.81;5034812;28;19926;-71
2023/03/23 02:40:17;;;;;;;;;;;;;;;-144.99;100.00;52439.94;5030728;28;19948;-72
2023/03/23 02:42:46;;;;;;;;;;;;;;;-144.99;100.00;52466.44;5040118;28;19979;-73
2023/03/23 02:45:14;;;;;;;;;;;;;;;-144.99;100.00;52415.47;5032956;28;19925;-73
2023/03/23 02:47:42;;;;;;;;;;;;;;;-144.99;100.00;52419.56;5042035;28;19925;-73
2023/03/23 02:50:11;;;;;;;;;;;;;;;-144.99;100.00;52429.75;5039755;28;19979;-73
2023/03/23 02:52:40;;;;;;;;;;;;;;;-144.99;100.00;52433.81;5028504;28;19930;-65
2023/03/23 02:55:07;;;;;;;;;;;;;;;-144.99;100.00;52431.78;5033905;28;19929;-65
2023/03/23 02:57:34;;;;;;;;;;;;;;;-144.99;100.00;52425.66;5033741;28;19925;-66
2023/03/23 03:00:01;;;;;;;;;;;;;;;-144.99;100.00;52395.09;5036386;28;19951;-64
2023/03/23 03:02:29;;;;;;;;;;;;;;;-144.99;100.00;52399.19;5034113;28;19924;-65
2023/03/23 03:05:01;;;;;;;;;;;;;;;-144.99;100.00;52419.56;5031705;28;20028;-65
2023/03/23 03:07:48;;;;;;;;;;;;;;;-144.99;100.00;52395.09;5030340;28;19996;-64
2023/03/23 03:10:19;;;;;;;;;;;;;;;-144.99;100.00;52448.09;5026491;28;20159;-66
2023/03/23 03:12:50;;;;;;;;;;;;;;;-144.99;100.00;52456.25;5032857;28;20401;-65
2023/03/23 03:15:22;;;;;;;;;;;;;;;-144.99;100.00;52452.16;5035933;28;19929;-65
2023/03/23 03:17:52;;;;;;;;;;;;;;;-144.99;100.00;52421.59;5032095;28;20344;-62
2023/03/23 03:20:19;;;;;;;;;;;;;;;-144.99;100.00;52452.16;5029004;28;19925;-61
2023/03/23 03:22:47;;;;;;;;;;;;;;;-144.99;100.00;52423.63;5029905;28;20436;-61
2023/03/23 03:25:15;;;;;;;;;;;;;;;-144.99;100.00;52415.47;5034834;28;19955;-61
2023/03/23 03:27:45;;;;;;;;;;;;;;;-144.99;100.00;52427.72;5033326;28;19932;-62
2023/03/23 03:30:14;;;;;;;;;;;;;;;-144.99;100.00;52403.25;5033404;28;20404;-63
2023/03/23 03:32:46;;;;;;;;;;;;;;;-144.99;100.00;52419.56;5031376;28;19997;-63
2023/03/23 03:35:13;;;;;;;;;;;;;;;-144.99;100.00;52427.72;5025468;28;20331;-61
2023/03/23 03:37:40;;;;;;;;;;;;;;;-144.99;100.00;52439.94;5026691;28;20379;-62
2023/03/23 03:40:11;;;;;;;;;;;;;;;-144.99;100.00;52452.16;5027524;28;20082;-62
2023/03/23 03:42:37;;;;;;;;;;;;;;;-144.99;100.00;52419.56;5034300;28;19933;-61
2023/03/23 03:45:07;;;;;;;;;;;;;;;-144.99;100.00;52448.09;5023070;28;19979;-62
2023/03/23 03:47:33;;;;;;;;;;;;;;;-144.99;100.00;52427.72;5026875;28;19925;-69
2023/03/23 03:50:00;;;;;;;;;;;;;;;-144.99;100.00;52415.47;5030458;28;19956;-68
2023/03/23 03:52:27;;;;;;;;;;;;;;;-144.99;100.00;52460.31;5028930;28;19936;-68
2023/03/23 03:54:53;;;;;;;;;;;;;;;-144.99;100.00;52464.41;5030706;28;20378;-69
2023/03/23 03:57:20;;;;;;;;;;;;;;;-144.99;100.00;52468.47;5036251;28;19936;-68
2023/03/23 03:59:47;;;;;;;;;;;;;;;-144.99;100.00;52421.59;5035340;28;19929;-69
2023/03/23 04:02:19;;;;;;;;;;;;;;;-144.99;100.00;52429.75;5030199;28;19925;-70
2023/03/23 04:04:46;;;;;;;;;;;;;;;-144.99;100.00;52444.03;5035536;28;19925;-69
2023/03/23 04:07:13;;;;;;;;;;;;;;;-144.99;100.00;52435.88;5028147;28;20365;-70
2023/03/23 04:09:40;;;;;;;;;;;;;;;-144.99;100.00;52433.81;5024006;28;19929;-73
2023/03/23 04:12:06;;;;;;;;;;;;;;;-144.99;100.00;52433.81;5029642;28;20277;-70
2023/03/23 04:14:33;;;;;;;;;;;;;;;-144.99;100.00;52427.72;5033188;28;20374;-71
2023/03/23 04:16:59;;;;;;;;;;;;;;;-144.99;100.00;52391.03;5034400;28;19991;-64
2023/03/23 04:19:28;;;;;;;;;;;;;;;-144.99;100.00;52431.78;5029928;28;20452;-62
2023/03/23 04:21:54;;;;;;;;;;;;;;;-144.99;100.00;52391.03;5033913;28;19928;-63
2023/03/23 04:24:23;;;;;;;;;;;;;;;-144.99;100.00;52464.41;5033692;28;20331;-63
2023/03/23 04:26:51;;;;;;;;;;;;;;;-144.99;100.00;52415.47;5031270;28;19978;-71
2023/03/23 04:29:19;;;;;;;;;;;;;;;-144.99;100.00;52448.09;5031165;28;20393;-69
2023/03/23 04:31:45;;;;;;;;;;;;;;;-144.99;100.00;52417.53;5030640;28;19960;-70
2023/03/23 04:34:13;;;;;;;;;;;;;;;-144.99;100.00;52391.03;5035469;28;19990;-69
2023/03/23 04:36:41;;;;;;;;;;;;;;;-144.99;100.00;52452.16;5029421;28;19925;-69
2023/03/23 04:39:09;;;;;;;;;;;;;;;-144.99;100.00;52433.81;5027987;28;19937;-69
2023/03/23 04:41:36;;;;;;;;;;;;;;;-144.99;100.00;52431.78;5032071;28;19964;-69
2023/03/23 04:44:04;;;;;;;;;;;;;;;-144.99;100.00;52409.38;5028174;28;19955;-69
2023/03/23 04:46:30;;;;;;;;;;;;;;;-144.99;100.00;52452.16;5027627;28;19962;-70
2023/03/23 04:48:58;;;;;;;;;;;;;;;-144.99;100.00;52401.22;5029677;28;19929;-70
2023/03/23 04:51:26;;;;;;;;;;;;;;;-144.99;100.00;52423.63;5026348;28;20393;-68
2023/03/23 04:53:54;;;;;;;;;;;;;;;-144.99;100.00;52419.56;5025598;28;20386;-67
2023/03/23 04:56:20;;;;;;;;;;;;;;;-144.99;100.00;52417.53;5023120;28;19929;-68
2023/03/23 04:58:47;;;;;;;;;;;;;;;-144.99;100.00;52427.72;5028288;28;19925;-69
2023/03/23 05:01:14;;;;;;;;;;;;;;;-144.99;100.00;52391.03;5027526;28;20452;-68
2023/03/23 05:03:41;;;;;;;;;;;;;;;-144.99;100.00;52401.22;5025261;28;20046;-68
2023/03/23 05:06:08;;;;;;;;;;;;;;;-144.99;100.00;52429.75;5028808;28;20162;-67
2023/03/23 05:08:34;;;;;;;;;;;;;;;-144.99;100.00;52409.38;5027331;28;19926;-68
2023/03/23 05:11:02;;;;;;;;;;;;;;;-144.99;100.00;52448.09;5028710;28;20405;-69
2023/03/23 05:13:29;;;;;;;;;;;;;;;-144.99;100.00;52480.72;5027674;28;19963;-68
2023/03/23 05:15:56;;;;;;;;;;;;;;;-144.99;100.00;52403.25;5028706;28;19967;-67
2023/03/23 05:18:22;;;;;;;;;;;;;;;-144.99;100.00;52415.47;5025673;28;19986;-68
2023/03/23 05:20:52;;;;;;;;;;;;;;;-144.99;100.00;52427.72;5027691;28;20021;-68
2023/03/23 05:23:20;;;;;;;;;;;;;;;-144.99;100.00;52431.78;5028680;28;20310;-68
2023/03/23 05:25:53;;;;;;;;;;;;;;;-144.99;100.00;52415.47;5028762;28;20029;-67
2023/03/23 05:28:22;;;;;;;;;;;;;;;-144.99;100.00;52460.31;5023947;28;19981;-66
2023/03/23 05:30:48;;;;;;;;;;;;;;;-144.99;100.00;52452.16;5026456;28;19936;-67
2023/03/23 05:33:15;;;;;;;;;;;;;;;-144.99;100.00;52419.56;5030009;28;19942;-67
2023/03/23 05:35:41;;;;;;;;;;;;;;;-144.99;100.00;52444.03;5028270;28;19960;-67
2023/03/23 05:38:08;;;;;;;;;;;;;;;-144.99;100.00;52460.31;5031810;28;20027;-67
2023/03/23 05:40:34;;;;;;;;;;;;;;;-144.99;100.00;52441.97;5029716;28;19936;-68
2023/03/23 05:43:01;;;;;;;;;;;;;;;-144.99;100.00;52460.31;5042918;28;19991;-67
2023/03/23 05:45:29;;;;;;;;;;;;;;;-144.99;100.00;52427.72;5026861;28;19929;-67
2023/03/23 05:47:56;;;;;;;;;;;;;;;-144.99;100.00;52423.63;5032988;28;19929;-67
2023/03/23 05:50:23;;;;;;;;;;;;;;;-144.99;100.00;52423.63;5026616;28;19944;-67
2023/03/23 05:52:50;;;;;;;;;;;;;;;-144.99;100.00;52456.25;5039225;28;19984;-68
2023/03/23 05:55:16;;;;;;;;;;;;;;;-144.99;100.00;52421.59;5028584;28;20047;-67
2023/03/23 05:57:43;;;;;;;;;;;;;;;-144.99;100.00;52423.63;5027130;28;20255;-68
2023/03/23 06:00:19;;;;;;;;;;;;;;;-144.99;100.00;52399.19;5025151;28;20154;-68
2023/03/23 06:02:47;;;;;;;;;;;;;;;-144.99;100.00;52431.78;5025053;28;19954;-68
2023/03/23 06:05:15;;;;;;;;;;;;;;;-144.99;100.00;52458.28;5032394;28;19959;-68
2023/03/23 06:07:42;;;;;;;;;;;;;;;-144.99;100.00;52423.63;5028547;28;19986;-68
2023/03/23 06:10:10;;;;;;;;;;;;;;;-144.99;100.00;52452.16;5031716;28;19929;-68
2023/03/23 06:12:36;;;;;;;;;;;;;;;-144.99;100.00;52415.47;5030233;28;20030;-66
2023/03/23 06:15:05;;;;;;;;;;;;;;;-144.99;100.00;52439.94;5028290;28;19957;-67
2023/03/23 06:17:31;;;;;;;;;;;;;;;-144.99;100.00;52419.56;5029290;28;20361;-68
2023/03/23 06:19:59;;;;;;;;;;;;;;;-144.99;100.00;52409.38;5030148;28;20616;-67
2023/03/23 06:22:26;;;;;;;;;;;;;;;-144.99;100.00;52403.25;5032850;28;20352;-67
2023/03/23 06:24:52;;;;;;;;;;;;;;;-144.99;100.00;52407.31;5032704;28;20001;-67
2023/03/23 06:27:19;;;;;;;;;;;;;;;-144.99;100.00;52444.03;5034969;28;19948;-67
2023/03/23 06:29:46;;;;;;;;;;;;;;;-144.99;100.00;52423.63;5032155;28;19994;-67
2023/03/23 06:32:13;;;;;;;;;;;;;;;-144.99;100.00;52391.03;5033513;28;20172;-67
2023/03/23 06:34:40;;;;;;;;;;;;;;;-144.99;100.00;52407.31;5040897;28;19951;-71
2023/03/23 06:37:09;;;;;;;;;;;;;;;-144.99;100.00;52433.81;5025065;28;20042;-70
2023/03/23 06:39:37;;;;;;;;;;;;;;;-144.99;100.00;52448.09;5040303;28;19942;-71
2023/03/23 06:42:03;;;;;;;;;;;;;;;-144.99;100.00;52419.56;5053528;28;20011;-70
2023/03/23 06:44:30;;;;;;;;;;;;;;;-144.99;100.00;52415.47;5034321;28;20146;-70
2023/03/23 06:46:57;;;;;;;;;;;;;;;-144.99;100.00;52454.22;5026151;28;20019;-70
2023/03/23 06:49:24;;;;;;;;;;;;;;;-144.99;100.00;52464.41;5027075;28;19939;-70
2023/03/23 06:51:50;;;;;;;;;;;;;;;-144.99;100.00;52403.25;5032987;28;19949;-70
2023/03/23 06:54:18;;;;;;;;;;;;;;;-144.99;100.00;52411.41;5037796;28;19951;-69
2023/03/23 06:56:45;;;;;;;;;;;;;;;-144.99;100.00;52393.06;5035502;28;20041;-70
2023/03/23 06:59:12;;;;;;;;;;;;;;;-144.99;100.00;52407.31;5042402;22;19932;-77
2023/03/23 07:01:39;;;;;;;;;;;;;;;-144.99;100.00;52415.47;5016398;28;20504;-77
2023/03/23 07:04:05;;;;;;;;;;;;;;;-144.99;100.00;52448.09;5020368;28;20293;-75
2023/03/23 07:06:32;;;;;;;;;;;;;;;-144.99;100.00;52435.88;5021196;28;19943;-77
2023/03/23 07:08:58;;;;;;;;;;;;;;;-144.99;100.00;52399.19;5008775;28;20007;-74
2023/03/23 07:11:26;;;;;;;;;;;;;;;-144.99;100.00;52423.63;5004780;28;20384;-76
2023/03/23 07:13:52;;;;;;;;;;;;;;;-144.99;100.00;52423.63;5004583;28;19987;-75
2023/03/23 07:16:19;;;;;;;;;;;;;;;-144.99;100.00;52419.56;5007527;28;19964;-76
2023/03/23 07:18:45;;;;;;;;;;;;;;;-144.99;100.00;52374.72;4996564;28;20040;-76
2023/03/23 07:21:12;;;;;;;;;;;;;;;-144.99;100.00;52456.25;5003762;28;19926;-75
2023/03/23 07:23:38;;;;;;;;;;;;;;;-144.99;100.00;52501.09;5004065;28;20388;-76
2023/03/23 07:26:06;;;;;;;;;;;;;;;-144.99;100.00;52435.88;5006992;28;20065;-75
2023/03/23 07:28:34;;;;;;;;;;;;;;;-144.99;100.00;52407.31;5006900;28;19952;-77
2023/03/23 07:31:01;;;;;;;;;;;;;;;-144.99;100.00;52399.19;5006215;28;20425;-77
2023/03/23 07:33:27;;;;;;;;;;;;;;;-144.99;100.00;52431.78;5003932;28;20380;-76
2023/03/23 07:35:54;;;;;;;;;;;;;;;-144.99;100.00;52427.72;5006162;28;19963;-77
2023/03/23 07:38:21;;;;;;;;;;;;;;;-144.99;100.00;52427.72;5003037;28;21408;-78
2023/03/23 07:40:48;;;;;;;;;;;;;;;-144.99;100.00;52448.09;5003278;28;20014;-76
2023/03/23 07:43:15;;;;;;;;;;;;;;;-144.99;100.00;52439.94;5009259;28;19940;-78
2023/03/23 07:45:43;;;;;;;;;;;;;;;-144.99;100.00;52437.91;5007793;28;20043;-78
2023/03/23 07:48:09;;;;;;;;;;;;;;;-144.99;98.23;52472.56;5006420;28;20199;-79
2023/03/23 07:50:37;;;;;;;;;;;;;;;-144.99;97.56;52458.28;5005701;28;20396;-75
2023/03/23 07:53:04;;;;;;;;;;;;;;;-144.99;98.09;52458.28;5001483;28;19925;-77
2023/03/23 07:55:30;;;;;;;;;;;;;;;-144.99;98.48;52423.63;5008604;28;19999;-78
2023/03/23 07:57:56;;;;;;;;;;;;;;;-144.99;99.50;52429.75;5004668;28;19929;-74
2023/03/23 08:00:24;;;;;;;;;;;;;;;-144.99;98.72;52427.72;5004014;28;20488;-78
2023/03/23 08:02:53;;;;;;;;;;;;;;;-144.99;97.98;52490.91;5006177;28;20384;-77
2023/03/23 08:05:20;;;;;;;;;;;;;;;-144.99;97.62;52431.78;5006918;28;20474;-75
2023/03/23 08:07:47;;;;;;;;;;;;;;;-144.99;97.86;52448.09;5007313;28;19948;-78
2023/03/23 08:10:14;;;;;;;;;;;;;;;-144.99;97.68;52444.03;5005703;28;20004;-75
2023/03/23 08:12:41;;;;;;;;;;;;;;;-144.99;96.39;52435.88;5005179;28;19929;-76
2023/03/23 08:15:08;;;;;;;;;;;;;;;-144.99;95.62;52464.41;5006654;28;19925;-76
2023/03/23 08:17:35;;;;;;;;;;;;;;;-144.99;96.00;52480.72;4999070;28;19968;-77
2023/03/23 08:20:10;;;;;;;;;;;;;;;-144.99;95.53;52415.47;5004795;28;20343;-75
2023/03/23 08:22:37;;;;;;;;;;;;;;;-144.99;95.37;52456.25;5006367;28;19972;-77
2023/03/23 08:25:05;;;;;;;;;;;;;;;-144.99;95.62;52456.25;4997835;28;20397;-76
2023/03/23 08:27:32;;;;;;;;;;;;;;;-144.99;95.80;52460.31;5007153;28;19943;-80
2023/03/23 08:29:59;;;;;;;;;;;;;;;-144.99;95.42;52456.25;5002819;28;19972;-75
2023/03/23 08:32:25;;;;;;;;;;;;;;;-144.99;95.33;52415.47;5006908;28;19926;-77
2023/03/23 08:34:52;;;;;;;;;;;;;;;-144.99;95.46;52452.16;5006518;28;19929;-78
2023/03/23 08:37:21;;;;;;;;;;;;;;;-144.99;95.60;52460.31;5012574;28;20368;-74
2023/03/23 08:39:47;;;;;;;;;;;;;;;-144.99;95.63;52435.88;5005626;28;19926;-75
2023/03/23 08:42:14;;;;;;;;;;;;;;;-144.99;95.70;52415.47;5004079;28;19969;-78
2023/03/23 08:44:40;;;;;;;;;;;;;;;-144.99;95.14;52448.09;5006923;28;19997;-77
2023/03/23 08:47:07;;;;;;;;;;;;;;;-144.99;94.57;52386.94;5007176;28;19941;-76
2023/03/23 08:49:34;;;;;;;;;;;;;;;-144.99;94.01;52415.47;5006026;28;19926;-77
2023/03/23 08:52:00;;;;;;;;;;;;;;;-144.99;93.55;52423.63;5005655;28;19936;-76
2023/03/23 08:54:29;;;;;;;;;;;;;;;-144.99;93.28;52435.88;5001638;28;19964;-78
2023/03/23 08:56:55;;;;;;;;;;;;;;;-144.99;93.80;52431.78;5001287;28;20431;-79
2023/03/23 08:59:22;;;;;;;;;;;;;;;-144.99;93.50;52419.56;5024832;28;19960;-77
2023/03/23 09:01:49;;;;;;;;;;;;;;;-144.99;93.26;52386.94;5021117;28;20005;-78
2023/03/23 09:04:15;;;;;;;;;;;;;;;-144.99;93.52;52376.75;4997042;28;20327;-77
2023/03/23 09:06:42;;;;;;;;;;;;;;;-144.99;93.16;52395.09;5005309;28;20266;-77
2023/03/23 09:09:09;;;;;;;;;;;;;;;-144.99;91.37;52378.78;5005690;28;20309;-77
2023/03/23 09:11:37;;;;;;;;;;;;;;;-144.99;91.09;52362.50;5009327;28;19982;-77
2023/03/23 09:14:04;;;;;;;;;;;;;;;-144.99;88.94;52350.25;5010329;28;20424;-78
2023/03/23 09:16:31;;;;;;;;;;;;;;;-144.99;88.47;52382.88;5010438;28;20033;-78
2023/03/23 09:18:58;;;;;;;;;;;;;;;-144.99;88.08;52391.03;5011431;28;19929;-77
2023/03/23 09:21:24;;;;;;;;;;;;;;;-144.99;87.55;52329.88;5009971;28;19984;-75
2023/03/23 09:23:51;;;;;;;;;;;;;;;-144.99;86.51;52386.94;5007568;28;19972;-77
2023/03/23 09:26:18;;;;;;;;;;;;;;;-144.99;86.14;52378.78;5010506;28;20371;-78
2023/03/23 09:28:46;;;;;;;;;;;;;;;-144.99;86.40;52360.44;5012262;28;19925;-77
2023/03/23 09:31:12;;;;;;;;;;;;;;;-144.99;85.79;52342.09;5009648;28;19933;-75
2023/03/23 09:33:39;;;;;;;;;;;;;;;-144.99;85.10;52386.94;5007921;28;19969;-73
2023/03/23 09:36:07;;;;;;;;;;;;;;;-144.99;84.66;52370.63;5009132;28;19969;-75
2023/03/23 09:38:34;;;;;;;;;;;;;;;-144.99;83.78;52397.13;5006966;28;20276;-73
2023/03/23 09:41:06;;;;;;;;;;;;;;;-144.99;83.43;52358.41;5026531;28;19964;-81
2023/03/23 09:43:53;;;;;;;;;;;;;;;-144.99;83.32;52366.56;5023830;28;20368;-73
2023/03/23 09:46:36;;;;;;;;;;;;;;;-144.99;84.89;52358.41;5009378;28;20200;-75
2023/03/23 09:49:06;;;;;;;;;;;;;;;-144.99;84.61;52382.88;5007374;28;19988;-75
2023/03/23 09:51:38;;;;;;;;;;;;;;;-144.99;84.11;52342.09;5016504;28;19957;-74
2023/03/23 09:54:08;;;;;;;;;;;;;;;-144.99;83.39;52374.72;5006661;28;19933;-76
2023/03/23 09:56:35;;;;;;;;;;;;;;;-144.99;83.87;52391.03;5005003;28;19961;-77
2023/03/23 09:59:05;;;;;;;;;;;;;;;-144.99;83.76;52364.53;5007279;28;19983;-76
2023/03/23 10:01:36;;;;;;;;;;;;;;;-144.99;83.20;52397.13;5008640;28;19933;-76
2023/03/23 10:04:06;;;;;;;;;;;;;;;-144.99;84.12;52441.97;5004966;28;19933;-73
2023/03/23 10:06:33;;;;;;;;;;;;;;;-144.99;84.13;52423.63;5004005;28;20028;-76
2023/03/23 10:09:03;;;;;;;;;;;;;;;-144.99;82.71;52378.78;5005691;28;19926;-76
2023/03/23 10:11:34;;;;;;;;;;;;;;;-144.99;82.72;52399.19;5009462;28;19935;-77
2023/03/23 10:14:08;;;;;;;;;;;;;;;-144.99;81.75;52372.69;5008422;28;20008;-74
2023/03/23 10:16:38;;;;;;;;;;;;;;;-144.99;80.63;52407.31;5007206;28;20397;-72
2023/03/23 10:19:10;;;;;;;;;;;;;;;-144.99;80.01;52388.97;5005432;28;20023;-76
2023/03/23 10:21:43;;;;;;;;;;;;;;;-144.99;78.73;52386.94;5007816;28;19965;-77
2023/03/23 10:24:11;;;;;;;;;;;;;;;-144.99;76.88;52407.31;4999642;28;19984;-77
2023/03/23 10:26:43;;;;;;;;;;;;;;;-144.99;75.88;52372.69;5006809;28;19929;-74
2023/03/23 10:29:13;;;;;;;;;;;;;;;-144.99;74.75;52391.03;5009961;28;19930;-78
2023/03/23 10:31:43;;;;;;;;;;;;;;;-144.99;74.53;52431.78;5009047;28;19976;-76
2023/03/23 10:34:13;;;;;;;;;;;;;;;-144.99;74.37;52336.00;5007096;28;20484;-73
2023/03/23 10:36:43;;;;;;;;;;;;;;;-144.99;73.36;52313.56;5005018;28;19964;-73
2023/03/23 10:39:12;;;;;;;;;;;;;;;-144.99;72.01;52293.19;5002195;28;19944;-75
2023/03/23 10:41:39;;;;;;;;;;;;;;;-144.99;72.37;52333.94;5007930;28;20348;-72
2023/03/23 10:44:10;;;;;;;;;;;;;;;-144.99;73.15;52362.50;5007899;28;19963;-76
2023/03/23 10:46:42;;;;;;;;;;;;;;;-144.99;74.00;52374.72;5003835;28;19976;-74
2023/03/23 10:49:12;;;;;;;;;;;;;;;-144.99;73.85;52384.91;5006930;28;20003;-73
2023/03/23 10:51:41;;;;;;;;;;;;;;;-144.99;74.67;52431.78;5005572;28;19960;-74
2023/03/23 10:54:07;;;;;;;;;;;;;;;-144.99;74.71;52374.72;5012726;28;19961;-76
2023/03/23 10:56:36;;;;;;;;;;;;;;;-144.99;74.98;52419.56;5008091;28;19996;-76
2023/03/23 10:59:12;;;;;;;;;;;;;;;-144.99;75.87;52415.47;5006530;28;19929;-73
2023/03/23 11:01:39;;;;;;;;;;;;;;;-144.99;75.47;52407.31;5007828;28;19936;-73
2023/03/23 11:04:12;;;;;;;;;;;;;;;-144.99;75.92;52386.94;5007704;28;19969;-75
2023/03/23 11:06:45;;;;;;;;;;;;;;;-144.99;75.81;52370.63;5005330;28;19968;-74
2023/03/23 11:09:12;;;;;;;;;;;;;;;-144.99;75.97;52391.03;5005100;28;19957;-75
2023/03/23 11:11:42;;;;;;;;;;;;;;;-144.99;76.25;52386.94;5007378;28;19926;-72
2023/03/23 11:14:15;;;;;;;;;;;;;;;-144.99;76.48;52391.03;5007300;28;19929;-76
2023/03/23 11:16:44;;;;;;;;;;;;;;;-144.99;78.32;52427.72;5002671;28;19980;-77
2023/03/23 11:19:15;;;;;;;;;;;;;;;-144.99;80.24;52435.88;5004170;28;19929;-73
2023/03/23 11:21:46;;;;;;;;;;;;;;;-144.99;80.30;52425.66;5006901;28;20023;-75
2023/03/23 11:24:13;;;;;;;;;;;;;;;-144.99;81.12;52439.94;5005356;28;20412;-74
2023/03/23 11:26:39;;;;;;;;;;;;;;;-144.99;80.71;52397.13;5003814;28;19929;-75
2023/03/23 11:29:10;;;;;;;;;;;;;;;-144.99;80.38;52374.72;5004897;28;19926;-76
2023/03/23 11:31:37;;;;;;;;;;;;;;;-144.99;79.32;52393.06;5007131;28;20024;-73
2023/03/23 11:34:05;;;;;;;;;;;;;;;-144.99;78.01;52415.47;5006571;28;19956;-77
2023/03/23 11:36:34;;;;;;;;;;;;;;;-144.99;77.75;52415.47;5007233;28;19973;-75
2023/03/23 11:39:05;;;;;;;;;;;;;;;-144.99;77.17;52411.41;5002832;28;20275;-78
2023/03/23 11:41:33;;;;;;;;;;;;;;;-144.99;76.97;52419.56;5006856;28;20027;-76
2023/03/23 11:44:03;;;;;;;;;;;;;;;-144.99;76.45;52435.88;5006436;28;19925;-75
2023/03/23 11:46:34;;;;;;;;;;;;;;;-144.99;76.33;52423.63;5006827;28;19964;-78
2023/03/23 11:49:02;;;;;;;;;;;;;;;-144.99;75.49;52374.72;5004080;28;20423;-76
2023/03/23 11:51:32;;;;;;;;;;;;;;;-144.99;74.89;52423.63;5009628;28;20282;-80
2023/03/23 11:54:03;;;;;;;;;;;;;;;-144.99;75.57;52423.63;5007687;28;20277;-76
2023/03/23 11:56:31;;;;;;;;;;;;;;;-144.99;76.09;52423.63;5004883;28;19969;-78
2023/03/23 11:58:59;;;;;;;;;;;;;;;-144.99;75.93;52378.78;5000438;28;19988;-77
2023/03/23 12:01:32;;;;;;;;;;;;;;;-144.99;76.17;52391.03;5001242;28;19932;-76
2023/03/23 12:04:17;;;;;;;;;;;;;;;-144.99;75.51;52435.88;4998359;28;19973;-76
2023/03/23 12:06:48;;;;;;;;;;;;;;;-144.99;76.82;52415.47;5006342;28;19953;-73
2023/03/23 12:09:23;;;;;;;;;;;;;;;-144.99;76.06;52419.56;5004180;28;20128;-76
2023/03/23 12:11:55;;;;;;;;;;;;;;;-144.99;75.63;52397.13;5006352;28;19929;-75
2023/03/23 12:14:24;;;;;;;;;;;;;;;-144.99;76.18;52411.41;5006590;28;19937;-77
2023/03/23 12:17:06;;;;;;;;;;;;;;;-144.99;75.58;52427.72;5006138;28;19929;-74
2023/03/23 12:19:39;;;;;;;;;;;;;;;-144.99;75.70;52407.31;5005567;28;19972;-76
2023/03/23 12:22:10;;;;;;;;;;;;;;;-144.99;76.11;52391.03;5003171;28;19929;-77
2023/03/23 12:24:44;;;;;;;;;;;;;;;-144.99;76.68;52399.19;5004441;28;19972;-75
2023/03/23 12:27:16;;;;;;;;;;;;;;;-144.99;76.22;52374.72;5006937;28;19925;-77
2023/03/23 12:29:53;;;;;;;;;;;;;;;-144.99;75.58;52309.50;5003619;28;20447;-72